Time;durP1;ratioP1;P1;durP2;ratioP2;P2;SDS_P1;SDS_P2;PMS_P1;PMS_P2;Temp;Humidity;BMP_temperature;BMP_pressure;BME280_temperature;BME280_humidity;BME280_pressure;Samples;Min_cycle;Max_cycle;Signal;HPM_P1;HPM_P2
2021/01/19 00:00:17;;;;;;;10.40;8.17;;;4.60;1.00;;;;;;5029737;28;20754;-80
2021/01/19 00:02:42;;;;;;;15.83;8.90;;;4.60;99.90;;;;;;5026435;28;20706;-80
2021/01/19 00:05:09;;;;;;;11.00;9.37;;;4.60;99.90;;;;;;5027613;28;20545;-80
2021/01/19 00:07:34;;;;;;;14.17;7.80;;;4.60;1.00;;;;;;5035473;28;20186;-80
2021/01/19 00:10:00;;;;;;;15.63;8.30;;;4.60;10.80;;;;;;5029199;28;20453;-81
2021/01/19 00:12:26;;;;;;;13.53;9.70;;;4.60;1.00;;;;;;5010398;28;20187;-82
2021/01/19 00:14:53;;;;;;;19.27;9.60;;;4.60;1.00;;;;;;5016102;28;20231;-83
2021/01/19 00:17:19;;;;;;;13.13;9.40;;;4.60;45.10;;;;;;5011118;28;20229;-81
2021/01/19 00:19:45;;;;;;;19.20;8.67;;;4.60;1.00;;;;;;5018698;28;20591;-82
2021/01/19 00:22:11;;;;;;;17.50;9.97;;;4.60;1.00;;;;;;5024661;28;20454;-82
2021/01/19 00:24:37;;;;;;;26.33;10.80;;;4.50;1.00;;;;;;5032270;28;20447;-82
2021/01/19 00:27:03;;;;;;;17.53;9.33;;;4.60;1.00;;;;;;5033781;28;20453;-81
2021/01/19 00:29:29;;;;;;;16.70;8.70;;;4.50;99.90;;;;;;5033915;28;20202;-81
2021/01/19 00:31:54;;;;;;;16.80;8.77;;;4.60;99.90;;;;;;5025784;28;20477;-82
2021/01/19 00:34:20;;;;;;;14.03;9.30;;;4.50;99.90;;;;;;5034951;28;20582;-81
2021/01/19 00:36:47;;;;;;;18.80;8.93;;;4.60;99.90;;;;;;5039302;28;20222;-82
2021/01/19 00:39:13;;;;;;;15.93;9.17;;;4.50;1.00;;;;;;5029725;28;20222;-81
2021/01/19 00:41:39;;;;;;;18.70;8.83;;;4.50;1.00;;;;;;5032025;28;20464;-80
2021/01/19 00:44:05;;;;;;;17.63;8.90;;;4.50;1.00;;;;;;5037460;28;20561;-81
2021/01/19 00:46:31;;;;;;;14.70;9.47;;;4.50;1.00;;;;;;5025395;28;20223;-81
2021/01/19 00:48:57;;;;;;;19.00;9.63;;;4.50;57.80;;;;;;5019707;28;20504;-83
2021/01/19 00:51:23;;;;;;;19.20;8.43;;;4.50;1.00;;;;;;5030458;28;20468;-80
2021/01/19 00:53:49;;;;;;;21.30;7.77;;;4.50;1.00;;;;;;5024235;28;20234;-81
2021/01/19 00:56:15;;;;;;;11.90;7.93;;;4.50;99.90;;;;;;5028079;28;20467;-81
2021/01/19 00:58:40;;;;;;;14.07;7.43;;;4.50;1.00;;;;;;5029045;28;20194;-81
2021/01/19 01:01:06;;;;;;;12.23;7.93;;;4.50;1.00;;;;;;5030806;28;20480;-81
2021/01/19 01:03:33;;;;;;;13.57;7.60;;;4.50;1.00;;;;;;5009662;28;22067;-80
2021/01/19 01:05:59;;;;;;;19.47;7.50;;;4.50;1.00;;;;;;5008838;28;20235;-81
2021/01/19 01:08:25;;;;;;;20.07;8.03;;;4.50;1.00;;;;;;5007936;28;21131;-81
2021/01/19 01:10:51;;;;;;;16.30;7.10;;;4.50;1.00;;;;;;5017726;28;20481;-81
2021/01/19 01:13:20;;;;;;;11.43;7.17;;;4.50;1.00;;;;;;5008910;28;20446;-81
2021/01/19 01:15:45;;;;;;;14.93;8.07;;;4.50;99.90;;;;;;5005327;28;20525;-81
2021/01/19 01:18:12;;;;;;;13.20;6.87;;;4.50;99.90;;;;;;5006670;28;20453;-81
2021/01/19 01:20:38;;;;;;;10.33;6.70;;;4.50;1.00;;;;;;5002884;28;20196;-81
2021/01/19 01:23:04;;;;;;;12.60;7.17;;;4.50;99.90;;;;;;5005255;28;20461;-80
2021/01/19 01:25:29;;;;;;;12.90;6.57;;;4.50;99.90;;;;;;5003109;28;20450;-81
2021/01/19 01:27:55;;;;;;;10.77;6.60;;;4.50;99.90;;;;;;5005669;28;20192;-80
2021/01/19 01:30:21;;;;;;;13.90;6.93;;;4.50;99.90;;;;;;5008802;28;20206;-81
2021/01/19 01:32:50;;;;;;;11.03;5.70;;;4.50;99.90;;;;;;5002865;28;20659;-81
2021/01/19 01:35:17;;;;;;;11.53;6.30;;;4.50;99.90;;;;;;5011218;28;20219;-81
2021/01/19 01:37:51;;;;;;;15.57;6.50;;;4.50;99.90;;;;;;5001784;28;20549;-81
2021/01/19 01:40:27;;;;;;;15.33;5.67;;;4.50;99.90;;;;;;5014327;28;20452;-80
2021/01/19 01:42:59;;;;;;;12.07;6.13;;;4.40;99.90;;;;;;5018850;28;20460;-81
2021/01/19 01:45:27;;;;;;;12.03;4.90;;;4.40;99.90;;;;;;5010044;28;20474;-81
2021/01/19 01:47:55;;;;;;;11.40;5.40;;;4.50;99.90;;;;;;5012321;28;20537;-81
2021/01/19 01:50:22;;;;;;;9.10;5.00;;;4.50;99.90;;;;;;5015237;28;20458;-81
2021/01/19 01:52:48;;;;;;;14.10;5.03;;;4.40;99.90;;;;;;5002237;28;20476;-80
2021/01/19 01:55:17;;;;;;;7.20;4.60;;;4.50;99.90;;;;;;4994293;28;20478;-81
2021/01/19 01:57:43;;;;;;;13.17;4.63;;;4.50;99.90;;;;;;5002517;28;21146;-80
2021/01/19 02:00:11;;;;;;;6.53;4.93;;;4.50;99.90;;;;;;5006747;28;20473;-81
2021/01/19 02:02:57;;;;;;;9.10;4.60;;;4.50;99.90;;;;;;5003473;28;20180;-81
2021/01/19 02:05:24;;;;;;;11.03;4.57;;;4.50;99.90;;;;;;5009370;28;20477;-81
2021/01/19 02:08:22;;;;;;;12.07;5.00;;;4.50;99.90;;;;;;5006866;28;20981;-81
2021/01/19 02:11:16;;;;;;;11.37;4.60;;;4.50;99.90;;;;;;5006590;28;20479;-81
2021/01/19 02:14:17;;;;;;;8.90;3.97;;;4.50;99.90;;;;;;5001453;28;20806;-80
2021/01/19 02:17:05;;;;;;;6.07;3.47;;;4.50;99.90;;;;;;5004124;28;20535;-81
2021/01/19 02:20:16;;;;;;;9.47;4.00;;;4.50;99.90;;;;;;5003058;28;20465;-80
2021/01/19 02:23:12;;;;;;;5.83;3.80;;;4.50;99.90;;;;;;5008624;28;21024;-81
2021/01/19 02:25:57;;;;;;;12.53;4.47;;;4.50;99.90;;;;;;5013943;28;20549;-81
2021/01/19 02:28:44;;;;;;;6.37;3.60;;;4.50;90.30;;;;;;5010736;28;20453;-81
2021/01/19 02:31:25;;;;;;;14.20;3.87;;;4.50;80.00;;;;;;5005900;28;20819;-80
2021/01/19 02:34:25;;;;;;;9.97;3.70;;;4.50;56.10;;;;;;5015533;28;20480;-81
2021/01/19 02:37:02;;;;;;;6.33;3.63;;;4.50;54.10;;;;;;5008275;28;20485;-80
2021/01/19 02:39:41;;;;;;;7.10;3.43;;;4.50;40.60;;;;;;5022289;28;20433;-81
2021/01/19 02:42:10;;;;;;;7.03;3.60;;;4.50;45.50;;;;;;5001150;28;20811;-81
2021/01/19 02:44:38;;;;;;;13.43;3.47;;;4.50;36.40;;;;;;5002902;28;21487;-80
2021/01/19 02:47:04;;;;;;;7.80;4.13;;;4.50;31.40;;;;;;5014413;28;20462;-81
2021/01/19 02:49:30;;;;;;;8.70;3.60;;;4.50;20.60;;;;;;5012817;28;20453;-81
2021/01/19 02:51:57;;;;;;;8.10;3.73;;;4.50;29.10;;;;;;5015947;28;20453;-81
2021/01/19 02:54:26;;;;;;;3.60;2.70;;;4.50;22.30;;;;;;5017694;28;20237;-81
2021/01/19 02:57:49;;;;;;;12.03;3.27;;;4.40;18.60;;;;;;5020645;28;21365;-81
2021/01/19 03:00:32;;;;;;;5.63;2.23;;;4.50;8.90;;;;;;4981477;28;20799;-82
2021/01/19 03:02:59;;;;;;;6.57;2.50;;;4.40;4.60;;;;;;4973196;28;20486;-81
2021/01/19 03:05:28;;;;;;;6.90;3.50;;;4.50;1.00;;;;;;4993628;28;20469;-81
2021/01/19 03:07:55;;;;;;;11.83;2.77;;;4.50;1.00;;;;;;5011880;28;20458;-82
2021/01/19 03:10:21;;;;;;;7.17;3.20;;;4.40;1.00;;;;;;5020794;28;20461;-81
2021/01/19 03:12:47;;;;;;;8.27;2.97;;;4.50;1.00;;;;;;5019523;28;20763;-81
2021/01/19 03:15:17;;;;;;;5.13;2.77;;;4.50;1.00;;;;;;5019475;28;20489;-81
2021/01/19 03:17:43;;;;;;;4.87;2.50;;;4.40;1.00;;;;;;5009180;28;20509;-81
2021/01/19 03:20:14;;;;;;;5.97;2.50;;;4.40;1.00;;;;;;5009766;28;20854;-81
2021/01/19 03:22:41;;;;;;;8.37;2.97;;;4.40;1.00;;;;;;5011546;28;20477;-81
2021/01/19 03:25:07;;;;;;;8.57;3.17;;;4.30;1.00;;;;;;5017607;28;20486;-81
2021/01/19 03:27:33;;;;;;;4.90;3.20;;;4.30;1.00;;;;;;5025640;28;20961;-81
2021/01/19 03:29:59;;;;;;;7.83;2.60;;;4.30;1.00;;;;;;5024526;28;20453;-81
2021/01/19 03:32:25;;;;;;;10.33;3.60;;;4.30;1.00;;;;;;5011050;28;20438;-81
2021/01/19 03:34:50;;;;;;;4.13;2.77;;;4.30;1.00;;;;;;5009517;28;20242;-81
2021/01/19 03:37:16;;;;;;;5.13;3.33;;;4.20;1.00;;;;;;5011349;28;20735;-81
2021/01/19 03:39:42;;;;;;;8.97;2.70;;;4.20;1.00;;;;;;5010049;28;20571;-81
2021/01/19 03:42:07;;;;;;;5.80;2.43;;;4.20;1.00;;;;;;5012561;28;20175;-81
2021/01/19 03:44:33;;;;;;;6.50;2.80;;;4.20;1.00;;;;;;5009619;28;20261;-81
2021/01/19 03:46:59;;;;;;;10.67;2.97;;;4.20;1.00;;;;;;5013915;28;20192;-80
2021/01/19 03:49:24;;;;;;;5.90;2.37;;;4.20;1.00;;;;;;5016851;28;20198;-80
2021/01/19 03:51:50;;;;;;;9.73;3.00;;;4.10;1.00;;;;;;5015714;28;20188;-81
2021/01/19 03:54:16;;;;;;;4.43;2.40;;;4.20;1.00;;;;;;5027034;28;20230;-81
2021/01/19 03:56:41;;;;;;;4.40;2.23;;;4.10;1.00;;;;;;5007164;28;20263;-81
2021/01/19 03:59:07;;;;;;;3.80;2.40;;;4.20;1.00;;;;;;5005814;28;20263;-81
2021/01/19 04:01:39;;;;;;;6.20;2.80;;;4.20;1.00;;;;;;5002503;28;20188;-81
2021/01/19 04:04:05;;;;;;;7.73;2.40;;;4.20;1.00;;;;;;5022317;28;20267;-81
2021/01/19 04:06:31;;;;;;;8.23;2.90;;;4.20;1.00;;;;;;5013480;28;20450;-81
2021/01/19 04:08:57;;;;;;;4.50;2.63;;;4.20;1.00;;;;;;5008697;28;20181;-80
2021/01/19 04:11:23;;;;;;;6.73;2.70;;;4.20;1.00;;;;;;5006746;28;20468;-80
2021/01/19 04:13:48;;;;;;;5.00;2.40;;;4.20;1.00;;;;;;5009520;28;20211;-80
2021/01/19 04:16:15;;;;;;;4.37;2.40;;;4.20;1.00;;;;;;5013393;28;20682;-81
2021/01/19 04:18:41;;;;;;;5.90;2.53;;;4.10;1.00;;;;;;5013850;28;20196;-80
2021/01/19 04:21:07;;;;;;;5.40;2.20;;;4.20;1.00;;;;;;5005325;28;20799;-80
2021/01/19 04:23:33;;;;;;;6.63;2.00;;;4.10;1.00;;;;;;5007239;28;21553;-80
2021/01/19 04:25:58;;;;;;;8.60;2.93;;;4.10;1.00;;;;;;5017129;28;20202;-81
2021/01/19 04:28:24;;;;;;;8.50;3.30;;;4.10;1.00;;;;;;5019247;28;20199;-80
2021/01/19 04:30:49;;;;;;;4.53;2.00;;;4.00;1.00;;;;;;5004575;28;20297;-80
2021/01/19 04:33:15;;;;;;;6.37;2.30;;;4.00;1.00;;;;;;5019477;28;20183;-80
2021/01/19 04:35:41;;;;;;;6.83;2.57;;;4.00;1.00;;;;;;5016739;28;20459;-80
2021/01/19 04:38:08;;;;;;;3.97;2.60;;;4.00;1.00;;;;;;5020646;28;20212;-80
2021/01/19 04:40:34;;;;;;;5.97;2.60;;;4.00;1.00;;;;;;5009462;28;20548;-80
2021/01/19 04:43:00;;;;;;;5.90;2.50;;;3.90;1.00;;;;;;5009475;28;20484;-80
2021/01/19 04:45:26;;;;;;;7.80;3.70;;;3.90;1.00;;;;;;5014111;28;20509;-80
2021/01/19 04:47:52;;;;;;;5.30;3.23;;;3.90;1.00;;;;;;5014855;28;20501;-82
2021/01/19 04:50:18;;;;;;;13.37;3.50;;;3.80;1.00;;;;;;5009575;28;20557;-84
2021/01/19 04:52:46;;;;;;;6.53;3.00;;;3.90;2.20;;;;;;5014575;28;20200;-80
2021/01/19 04:55:36;;;;;;;6.50;2.90;;;3.80;5.00;;;;;;5016709;28;21324;-79
2021/01/19 04:58:05;;;;;;;7.93;4.00;;;3.80;30.20;;;;;;5009949;28;20872;-80
2021/01/19 05:00:35;;;;;;;13.80;3.70;;;3.80;41.60;;;;;;5006145;28;20782;-80
2021/01/19 05:03:22;;;;;;;5.80;2.60;;;3.70;54.10;;;;;;5003407;28;20815;-80
2021/01/19 05:06:15;;;;;;;5.40;3.40;;;3.70;77.40;;;;;;5003356;28;20485;-83
2021/01/19 05:08:43;;;;;;;7.97;3.57;;;3.80;66.70;;;;;;5006442;28;20480;-80
2021/01/19 05:11:30;;;;;;;5.60;2.50;;;3.80;95.10;;;;;;5008528;28;20457;-83
2021/01/19 05:14:02;;;;;;;6.17;2.30;;;3.70;89.60;;;;;;5014581;28;20465;-83
2021/01/19 05:16:28;;;;;;;10.63;2.77;;;3.70;99.90;;;;;;5016915;28;20557;-81
2021/01/19 05:18:55;;;;;;;7.13;2.90;;;3.70;99.90;;;;;;5019807;28;20449;-80
2021/01/19 05:21:20;;;;;;;4.90;3.00;;;3.70;99.90;;;;;;5013429;28;20203;-81
2021/01/19 05:23:46;;;;;;;9.40;3.93;;;3.70;99.90;;;;;;4996287;28;20459;-82
2021/01/19 05:26:14;;;;;;;9.43;3.50;;;3.70;99.90;;;;;;5005814;28;20523;-82
2021/01/19 05:28:49;;;;;;;11.20;2.50;;;3.70;99.90;;;;;;5009090;28;20448;-83
2021/01/19 05:31:15;;;;;;;9.33;2.63;;;3.60;99.90;;;;;;5011191;28;20973;-84
2021/01/19 05:34:00;;;;;;;7.60;3.10;;;3.60;99.90;;;;;;5007823;28;20457;-83
2021/01/19 05:36:41;;;;;;;13.07;3.17;;;3.60;99.90;;;;;;5012273;28;20303;-84
2021/01/19 05:39:09;;;;;;;10.83;3.23;;;3.60;99.90;;;;;;5012006;28;21069;-83
2021/01/19 05:41:44;;;;;;;6.93;3.13;;;3.60;99.90;;;;;;5003658;28;21072;-83
2021/01/19 05:44:17;;;;;;;6.80;3.10;;;3.50;1.00;;;;;;5012828;28;20433;-82
2021/01/19 05:47:04;;;;;;;7.33;3.07;;;3.60;99.90;;;;;;5018233;28;20457;-84
2021/01/19 05:49:34;;;;;;;8.10;3.30;;;3.50;99.90;;;;;;5015643;28;21526;-83
2021/01/19 05:52:01;;;;;;;5.60;2.90;;;3.50;1.00;;;;;;5008382;28;20942;-83
2021/01/19 05:54:29;;;;;;;6.33;2.53;;;3.50;1.00;;;;;;5007799;28;20470;-83
2021/01/19 05:57:08;;;;;;;5.33;2.57;;;3.50;1.00;;;;;;5010406;28;20440;-85
2021/01/19 05:59:51;;;;;;;8.93;3.40;;;3.50;1.00;;;;;;5011217;28;20449;-84
2021/01/19 06:02:18;;;;;;;9.60;3.10;;;3.60;1.00;;;;;;5011771;28;20457;-84
2021/01/19 06:04:54;;;;;;;7.83;3.10;;;3.60;3.20;;;;;;5013527;28;20501;-83
2021/01/19 06:07:24;;;;;;;4.60;2.37;;;3.60;1.00;;;;;;5017617;28;20458;-83
2021/01/19 06:09:51;;;;;;;7.93;3.07;;;3.60;1.00;;;;;;5019614;28;20455;-82
2021/01/19 06:12:18;;;;;;;9.53;3.80;;;3.60;99.90;;;;;;5015100;28;20985;-83
2021/01/19 06:14:48;;;;;;;10.13;3.17;;;3.60;99.90;;;;;;5032443;28;20483;-83
2021/01/19 06:17:20;;;;;;;5.23;2.90;;;3.70;1.00;;;;;;5011632;28;20450;-79
2021/01/19 06:19:47;;;;;;;9.77;3.10;;;3.70;99.90;;;;;;5016292;28;20471;-83
2021/01/19 06:22:19;;;;;;;6.10;2.50;;;3.70;1.00;;;;;;5013698;28;20778;-83
2021/01/19 06:24:46;;;;;;;5.30;2.20;;;3.70;99.90;;;;;;5008197;28;20508;-83
2021/01/19 06:27:24;;;;;;;5.10;2.70;;;3.70;99.90;;;;;;5004300;28;20806;-83
2021/01/19 06:29:51;;;;;;;5.13;2.30;;;3.70;99.90;;;;;;5025274;28;20463;-83
2021/01/19 06:32:18;;;;;;;4.77;2.50;;;3.70;99.90;;;;;;5014947;28;20476;-82
2021/01/19 06:34:44;;;;;;;4.47;2.60;;;3.70;1.00;;;;;;5015472;28;20547;-84
2021/01/19 06:37:23;;;;;;;8.40;3.97;;;3.70;99.90;;;;;;5011843;28;20929;-82
2021/01/19 06:39:55;;;;;;;5.93;2.73;;;3.70;99.90;;;;;;5011153;28;20761;-83
2021/01/19 06:42:25;;;;;;;7.50;2.83;;;3.70;99.90;;;;;;5015270;28;20446;-83
2021/01/19 06:44:55;;;;;;;8.93;3.03;;;3.70;99.90;;;;;;5016978;28;20453;-82
2021/01/19 06:47:21;;;;;;;5.07;2.50;;;3.70;99.90;;;;;;5014894;28;20907;-83
2021/01/19 06:49:47;;;;;;;3.77;3.07;;;3.70;99.90;;;;;;5010394;28;20465;-83
2021/01/19 06:52:16;;;;;;;6.00;2.43;;;3.70;99.90;;;;;;5015616;28;21142;-83
2021/01/19 06:55:04;;;;;;;5.40;2.77;;;3.80;99.90;;;;;;5015166;28;21070;-83
2021/01/19 06:57:44;;;;;;;4.40;2.70;;;3.80;99.90;;;;;;5012107;28;20739;-85
2021/01/19 07:00:18;;;;;;;5.23;2.20;;;3.80;99.90;;;;;;5010926;28;22179;-82
2021/01/19 07:02:45;;;;;;;4.77;3.13;;;3.80;99.90;;;;;;5007211;28;20541;-82
2021/01/19 07:05:16;;;;;;;3.47;2.50;;;3.80;99.90;;;;;;5012855;28;20879;-83
2021/01/19 07:07:47;;;;;;;6.20;2.67;;;3.80;99.90;;;;;;5011035;28;20813;-82
2021/01/19 07:10:19;;;;;;;2.07;1.80;;;3.80;99.90;;;;;;5011171;28;20534;-82
2021/01/19 07:12:56;;;;;;;12.73;3.20;;;3.90;99.90;;;;;;5011173;28;21612;-81
2021/01/19 07:15:44;;;;;;;6.90;2.47;;;3.90;99.90;;;;;;5013249;28;20830;-83
2021/01/19 07:18:17;;;;;;;3.60;2.67;;;3.90;99.90;;;;;;5007424;28;20858;-83
2021/01/19 07:21:12;;;;;;;4.10;2.77;;;3.90;99.90;;;;;;5016297;28;20483;-83
2021/01/19 07:24:11;;;;;;;5.00;2.93;;;3.90;99.90;;;;;;4987948;28;20514;-84
2021/01/19 07:26:40;;;;;;;3.20;2.40;;;4.00;99.90;;;;;;5013828;28;20454;-83
2021/01/19 07:29:07;;;;;;;6.70;2.63;;;4.00;99.90;;;;;;5012600;28;21197;-84
2021/01/19 07:31:33;;;;;;;4.50;3.13;;;3.90;99.90;;;;;;5015748;28;21304;-82
2021/01/19 07:34:02;;;;;;;4.80;2.40;;;3.90;99.90;;;;;;5013466;28;20591;-82
2021/01/19 07:36:28;;;;;;;3.17;2.67;;;3.90;99.90;;;;;;5007793;28;20462;-83
2021/01/19 07:38:54;;;;;;;2.70;2.50;;;4.00;99.90;;;;;;5004230;28;20460;-84
2021/01/19 07:41:34;;;;;;;3.20;2.30;;;3.90;99.90;;;;;;5005444;28;20191;-82
2021/01/19 07:44:01;;;;;;;2.80;2.50;;;4.00;99.90;;;;;;5005111;28;21290;-86
2021/01/19 07:46:29;;;;;;;3.90;2.43;;;4.00;99.90;;;;;;5024212;28;20500;-82
2021/01/19 07:49:06;;;;;;;5.73;2.80;;;4.00;99.90;;;;;;5013580;28;21045;-84
2021/01/19 07:51:45;;;;;;;3.27;2.60;;;4.00;99.90;;;;;;5017674;28;20473;-82
2021/01/19 07:54:12;;;;;;;4.40;3.10;;;4.00;99.90;;;;;;5020042;28;20717;-84
2021/01/19 07:56:38;;;;;;;3.10;2.80;;;4.00;99.90;;;;;;5013651;28;20469;-83
2021/01/19 07:59:17;;;;;;;3.03;2.73;;;4.00;99.90;;;;;;5016278;28;20453;-82
2021/01/19 08:01:56;;;;;;;5.67;2.53;;;4.00;99.90;;;;;;5011995;28;20453;-82
2021/01/19 08:04:30;;;;;;;3.80;2.80;;;4.00;99.90;;;;;;5018979;28;20464;-81
2021/01/19 08:06:57;;;;;;;3.07;2.07;;;4.00;99.90;;;;;;5019429;28;20597;-83
2021/01/19 08:09:23;;;;;;;4.93;2.33;;;4.00;99.90;;;;;;5022514;28;20453;-81
2021/01/19 08:12:04;;;;;;;2.97;2.20;;;4.00;99.90;;;;;;5018443;28;20450;-82
2021/01/19 08:14:48;;;;;;;4.20;2.20;;;4.00;99.90;;;;;;5028737;28;20553;-81
2021/01/19 08:17:14;;;;;;;2.63;2.33;;;4.10;99.90;;;;;;5007490;28;22130;-82
2021/01/19 08:19:45;;;;;;;2.83;2.47;;;4.10;99.90;;;;;;5007117;28;21505;-81
2021/01/19 08:22:11;;;;;;;6.40;2.97;;;4.10;99.90;;;;;;5009326;28;20198;-81
2021/01/19 08:24:41;;;;;;;4.20;2.10;;;4.20;99.90;;;;;;5008106;28;20480;-80
2021/01/19 08:27:07;;;;;;;4.20;2.10;;;4.20;99.90;;;;;;5016850;28;20453;-80
2021/01/19 08:29:32;;;;;;;3.60;2.27;;;4.20;99.90;;;;;;5018804;28;20446;-80
2021/01/19 08:32:00;;;;;;;2.87;2.40;;;4.20;99.90;;;;;;5005552;28;20441;-80
2021/01/19 08:34:27;;;;;;;1.90;1.70;;;4.20;99.90;;;;;;5008489;28;20289;-81
2021/01/19 08:36:55;;;;;;;3.47;2.73;;;4.20;99.90;;;;;;5003032;28;20985;-80
2021/01/19 08:39:22;;;;;;;9.47;1.97;;;4.20;99.90;;;;;;5015916;28;20451;-80
2021/01/19 08:41:50;;;;;;;3.83;2.17;;;4.30;99.90;;;;;;5009390;28;20450;-80
2021/01/19 08:44:16;;;;;;;2.43;1.53;;;4.30;99.90;;;;;;5012947;28;20905;-80
2021/01/19 08:46:43;;;;;;;9.80;2.87;;;4.30;99.90;;;;;;5016332;28;20462;-80
2021/01/19 08:49:10;;;;;;;1.63;1.43;;;4.30;99.90;;;;;;5015554;28;20488;-80
2021/01/19 08:51:37;;;;;;;2.30;1.70;;;4.30;99.90;;;;;;5015623;28;20504;-81
2021/01/19 08:54:08;;;;;;;1.90;1.57;;;4.30;99.90;;;;;;5018952;28;20492;-79
2021/01/19 08:56:38;;;;;;;1.90;1.70;;;4.30;99.90;;;;;;5008503;28;20456;-79
2021/01/19 08:59:04;;;;;;;3.30;1.70;;;4.30;99.90;;;;;;5009647;28;20450;-79
2021/01/19 09:01:29;;;;;;;2.70;1.93;;;4.30;99.90;;;;;;5005050;28;20457;-80
2021/01/19 09:04:00;;;;;;;2.10;1.90;;;4.30;99.90;;;;;;5010686;28;20187;-80
2021/01/19 09:06:26;;;;;;;2.30;1.50;;;4.40;99.90;;;;;;5017713;28;20218;-80
2021/01/19 09:08:58;;;;;;;2.97;1.83;;;4.30;99.90;;;;;;5018936;28;22486;-80
2021/01/19 09:11:28;;;;;;;5.33;2.00;;;4.30;99.90;;;;;;5021486;28;20188;-79
2021/01/19 09:14:09;;;;;;;3.37;2.17;;;4.30;99.90;;;;;;5016629;28;20442;-78
2021/01/19 09:16:36;;;;;;;3.20;1.77;;;4.30;99.90;;;;;;5017573;28;20800;-80
2021/01/19 09:19:08;;;;;;;4.63;1.60;;;4.30;99.90;;;;;;5017285;28;20441;-80
2021/01/19 09:21:39;;;;;;;1.90;1.53;;;4.30;99.90;;;;;;5021508;28;20481;-80
2021/01/19 09:24:12;;;;;;;2.90;1.80;;;4.30;99.90;;;;;;5017520;28;20975;-80
2021/01/19 09:26:46;;;;;;;2.00;1.67;;;4.40;99.90;;;;;;4996266;28;20897;-79
2021/01/19 09:29:11;;;;;;;2.00;1.80;;;4.40;99.90;;;;;;5005832;28;20532;-80
2021/01/19 09:31:37;;;;;;;2.50;1.97;;;4.40;99.90;;;;;;5001440;28;20836;-79
2021/01/19 09:34:03;;;;;;;2.50;1.90;;;4.50;99.90;;;;;;5012830;28;20705;-80
2021/01/19 09:36:29;;;;;;;2.70;2.30;;;4.50;99.90;;;;;;5008918;28;20211;-80
2021/01/19 09:38:58;;;;;;;3.23;1.93;;;4.50;99.90;;;;;;5002563;28;20204;-79
2021/01/19 09:41:25;;;;;;;2.93;1.97;;;4.50;99.90;;;;;;5007377;28;20471;-79
2021/01/19 09:43:52;;;;;;;2.60;1.80;;;4.50;99.90;;;;;;5003640;28;20469;-78
2021/01/19 09:46:23;;;;;;;2.87;2.20;;;4.50;99.90;;;;;;5016820;28;20457;-79
2021/01/19 09:48:50;;;;;;;5.40;2.00;;;4.50;99.90;;;;;;5016944;28;21101;-79
2021/01/19 09:51:27;;;;;;;2.60;1.83;;;4.60;99.90;;;;;;5015941;28;20891;-79
2021/01/19 09:54:00;;;;;;;6.33;2.20;;;4.60;99.90;;;;;;5016116;28;20466;-79
2021/01/19 09:56:26;;;;;;;1.97;1.70;;;4.60;99.90;;;;;;5007963;28;20455;-79
2021/01/19 09:59:07;;;;;;;2.40;1.70;;;4.70;99.90;;;;;;5005368;28;20473;-80
2021/01/19 10:01:33;;;;;;;3.77;2.10;;;4.60;99.90;;;;;;5003634;28;20524;-79
2021/01/19 10:03:59;;;;;;;3.27;1.70;;;4.70;99.90;;;;;;4998325;28;20474;-79
2021/01/19 10:06:26;;;;;;;3.70;2.40;;;4.70;99.90;;;;;;5013162;28;20469;-80
2021/01/19 10:08:53;;;;;;;2.40;1.93;;;4.70;99.90;;;;;;5009708;28;20600;-80
2021/01/19 10:11:36;;;;;;;2.33;1.90;;;4.70;99.90;;;;;;5013540;28;20817;-79
2021/01/19 10:14:12;;;;;;;2.93;2.70;;;4.70;99.90;;;;;;5012160;28;20461;-80
2021/01/19 10:16:43;;;;;;;2.50;2.10;;;4.80;99.90;;;;;;5005612;28;20480;-79
2021/01/19 10:19:21;;;;;;;2.70;2.30;;;4.80;99.90;;;;;;5007922;28;20895;-79
2021/01/19 10:21:50;;;;;;;3.77;2.27;;;4.80;99.90;;;;;;5006907;28;21580;-80
2021/01/19 10:24:17;;;;;;;2.20;2.00;;;4.80;99.90;;;;;;5012958;28;20796;-79
2021/01/19 10:27:12;;;;;;;2.50;1.90;;;4.90;99.90;;;;;;5013192;28;20547;-77
2021/01/19 10:29:42;;;;;;;2.97;1.60;;;4.90;99.90;;;;;;5003183;28;20461;-79
2021/01/19 10:32:14;;;;;;;3.10;2.33;;;4.90;99.90;;;;;;5022234;28;20912;-79
2021/01/19 10:34:50;;;;;;;4.93;2.23;;;4.90;99.90;;;;;;5014943;28;20843;-80
2021/01/19 10:37:17;;;;;;;2.50;2.17;;;4.90;99.90;;;;;;5014131;28;20597;-79
2021/01/19 10:39:46;;;;;;;4.40;2.03;;;5.00;99.90;;;;;;5012541;28;20511;-81
2021/01/19 10:42:26;;;;;;;3.43;2.60;;;5.00;99.90;;;;;;5008230;28;20738;-79
2021/01/19 10:45:05;;;;;;;2.80;2.50;;;5.00;99.90;;;;;;5017443;28;20477;-78
2021/01/19 10:47:46;;;;;;;2.60;2.40;;;5.00;99.90;;;;;;5008503;28;20561;-78
2021/01/19 10:50:14;;;;;;;2.57;2.10;;;5.10;99.90;;;;;;5011961;28;20454;-77
2021/01/19 10:52:41;;;;;;;2.77;2.43;;;5.10;99.90;;;;;;5015892;28;20455;-78
2021/01/19 10:55:08;;;;;;;3.00;1.87;;;5.10;99.90;;;;;;5011461;28;20535;-78
2021/01/19 10:57:34;;;;;;;2.97;2.67;;;5.20;99.90;;;;;;5012638;28;21320;-80
2021/01/19 11:00:02;;;;;;;2.10;1.90;;;5.20;99.90;;;;;;5012909;28;20454;-80
2021/01/19 11:02:27;;;;;;;6.70;2.40;;;5.20;99.90;;;;;;5015139;28;20505;-80
2021/01/19 11:04:53;;;;;;;2.90;2.13;;;5.30;99.90;;;;;;5009712;28;20479;-80
2021/01/19 11:07:19;;;;;;;2.23;2.00;;;5.30;99.90;;;;;;5002066;28;20226;-80
2021/01/19 11:09:44;;;;;;;2.50;2.30;;;5.30;99.90;;;;;;5009530;28;20208;-81
2021/01/19 11:12:10;;;;;;;3.13;1.93;;;5.40;99.90;;;;;;5034043;28;20212;-79
2021/01/19 11:14:36;;;;;;;2.40;2.20;;;5.40;99.90;;;;;;5036711;28;20215;-78
2021/01/19 11:17:02;;;;;;;2.60;2.00;;;5.50;99.90;;;;;;5033809;28;21364;-78
2021/01/19 11:19:28;;;;;;;3.30;2.77;;;5.50;99.90;;;;;;5029021;28;20223;-80
2021/01/19 11:21:54;;;;;;;3.10;1.73;;;5.60;99.90;;;;;;5028931;28;20516;-78
2021/01/19 11:24:19;;;;;;;2.20;1.80;;;5.60;99.90;;;;;;5032716;28;20191;-78
2021/01/19 11:26:45;;;;;;;2.37;1.93;;;5.60;99.90;;;;;;5019883;28;20195;-79
2021/01/19 11:29:11;;;;;;;1.57;1.47;;;5.60;99.90;;;;;;5018827;28;20733;-80
2021/01/19 11:31:38;;;;;;;4.50;2.23;;;5.60;99.90;;;;;;5009538;28;20192;-79
2021/01/19 11:34:09;;;;;;;3.43;2.37;;;5.70;99.90;;;;;;5018064;28;20762;-79
2021/01/19 11:36:37;;;;;;;2.97;2.50;;;5.60;99.90;;;;;;5017615;28;20497;-77
2021/01/19 11:39:08;;;;;;;2.80;2.17;;;5.70;99.90;;;;;;5019660;28;20446;-79
2021/01/19 11:41:36;;;;;;;2.83;2.17;;;5.70;99.90;;;;;;5005656;28;21475;-79
2021/01/19 11:44:02;;;;;;;3.30;2.27;;;5.70;99.90;;;;;;5021905;28;20639;-79
2021/01/19 11:46:29;;;;;;;5.23;2.67;;;5.70;99.90;;;;;;5022168;28;20458;-78
2021/01/19 11:48:57;;;;;;;2.90;1.83;;;5.70;99.90;;;;;;5014063;28;20561;-78
2021/01/19 11:51:26;;;;;;;1.97;1.80;;;5.80;99.90;;;;;;5017457;28;20565;-78
2021/01/19 11:53:54;;;;;;;3.93;2.00;;;5.80;99.90;;;;;;5018430;28;21156;-79
2021/01/19 11:56:20;;;;;;;2.07;1.80;;;5.90;99.90;;;;;;5014723;28;20465;-80
2021/01/19 11:58:46;;;;;;;2.67;1.60;;;5.90;99.90;;;;;;5018486;28;20457;-78
2021/01/19 12:01:19;;;;;;;2.30;1.73;;;5.90;99.90;;;;;;5013822;28;22146;-78
2021/01/19 12:03:45;;;;;;;2.30;1.80;;;6.00;99.90;;;;;;5018087;28;20450;-79
2021/01/19 12:06:11;;;;;;;1.90;1.70;;;5.90;99.90;;;;;;5014779;28;20465;-78
2021/01/19 12:08:36;;;;;;;3.97;2.57;;;6.00;99.90;;;;;;5005596;28;20470;-78
2021/01/19 12:11:02;;;;;;;4.87;3.00;;;6.00;99.90;;;;;;5006636;28;20664;-79
2021/01/19 12:13:28;;;;;;;2.60;2.10;;;6.10;99.90;;;;;;5004188;28;20573;-79
2021/01/19 12:15:53;;;;;;;3.10;2.37;;;6.00;99.90;;;;;;5011614;28;20688;-80
2021/01/19 12:18:19;;;;;;;5.63;2.90;;;6.10;99.90;;;;;;5006990;28;20195;-78
2021/01/19 12:20:44;;;;;;;5.43;2.30;;;6.10;99.90;;;;;;5006381;28;20208;-80
2021/01/19 12:23:10;;;;;;;2.90;2.70;;;6.10;99.90;;;;;;5005280;28;20195;-79
2021/01/19 12:25:36;;;;;;;4.63;2.73;;;6.20;99.90;;;;;;5006863;28;20198;-80
2021/01/19 12:28:02;;;;;;;2.63;2.30;;;6.10;99.90;;;;;;5008919;28;20205;-79
2021/01/19 12:30:29;;;;;;;2.43;2.23;;;6.20;99.90;;;;;;5011705;28;20184;-79
2021/01/19 12:32:54;;;;;;;3.63;2.80;;;6.30;99.90;;;;;;5030822;28;21305;-78
2021/01/19 12:35:20;;;;;;;2.50;2.27;;;6.30;99.90;;;;;;5019895;28;20475;-79
2021/01/19 12:37:46;;;;;;;3.53;1.97;;;6.30;99.90;;;;;;5014682;28;20251;-78
2021/01/19 12:40:12;;;;;;;2.70;2.33;;;6.30;99.90;;;;;;5018051;28;20243;-79
2021/01/19 12:42:38;;;;;;;3.23;2.90;;;6.30;99.90;;;;;;5008626;28;20281;-79
2021/01/19 12:45:05;;;;;;;2.70;2.40;;;6.40;99.90;;;;;;5015274;28;20445;-80
2021/01/19 12:47:30;;;;;;;2.83;2.50;;;6.40;99.90;;;;;;5018284;28;20216;-80
2021/01/19 12:49:56;;;;;;;2.60;2.40;;;6.40;99.90;;;;;;5014243;28;20476;-79
2021/01/19 12:52:21;;;;;;;3.60;2.43;;;6.40;99.90;;;;;;5007949;28;21125;-79
2021/01/19 12:54:47;;;;;;;2.93;2.50;;;6.50;99.90;;;;;;5017574;28;20237;-79
2021/01/19 12:57:14;;;;;;;2.83;2.63;;;6.50;99.90;;;;;;5012472;28;20176;-79
2021/01/19 12:59:43;;;;;;;4.60;2.40;;;6.50;99.90;;;;;;5017463;28;20198;-80
2021/01/19 13:02:09;;;;;;;3.20;2.90;;;6.50;99.90;;;;;;5007292;28;20549;-80
2021/01/19 13:04:35;;;;;;;2.57;2.37;;;6.60;99.90;;;;;;5006198;28;20491;-80
2021/01/19 13:07:01;;;;;;;3.03;2.67;;;6.60;99.90;;;;;;5006707;28;20471;-79
2021/01/19 13:09:27;;;;;;;2.80;2.60;;;6.60;99.90;;;;;;5008963;28;20526;-80
2021/01/19 13:11:53;;;;;;;3.80;2.87;;;6.60;99.90;;;;;;5007373;28;20187;-79